.
WxDataArchive / Data Records for 2012-03-19
2012-03-18 March 2012 2012-03-20

Data Records for Monday, 19 March 2012

Time	Temp	Chill	HIndex	Humid	Dewpt	 Wind 	HiWind	WindDir	Rain 	Barom 
-----	----	-----	------	-----	-----	------	------	-------	-----	----- 
00:00	57.0	57.0	57.0	87	53.2	0	0	---	0.00	30.039 
00:05	56.9	56.9	56.9	87	53.1	0	0	---	0.00	30.039 
00:10	56.7	56.7	56.7	87	52.9	0	0	---	0.00	30.039 
00:15	56.6	56.6	56.6	87	52.8	0	0	---	0.00	30.040 
00:20	56.5	56.5	56.5	87	52.7	0	0	---	0.00	30.040 
00:25	56.5	56.5	56.5	88	53.0	0	0	---	0.00	30.040 
00:30	56.3	56.3	56.3	88	52.8	0	0	---	0.00	30.044 
00:35	56.2	56.2	56.2	88	52.7	0	0	---	0.00	30.044 
00:40	56.0	56.0	56.0	88	52.5	0	0	---	0.00	30.044 
00:45	56.0	56.0	56.0	88	52.5	0	0	---	0.00	30.043 
00:50	56.0	56.0	56.0	89	52.8	0	0	---	0.00	30.043 
00:55	55.9	55.9	55.9	89	52.7	0	0	---	0.00	30.043 
01:00	55.9	55.9	55.9	89	52.7	0	0	---	0.00	30.044 
01:05	56.0	56.0	56.0	89	52.8	0	0	---	0.00	30.044 
01:10	56.2	56.2	56.2	90	53.3	0	0	---	0.00	30.044 
01:15	56.3	56.3	56.3	90	53.4	0	0	---	0.00	30.042 
01:20	56.5	56.5	56.5	90	53.6	0	0	---	0.00	30.042 
01:25	56.5	56.5	56.5	90	53.6	0	0	---	0.00	30.042 
01:30	56.5	56.5	56.5	90	53.6	0	0	---	0.00	30.042 
01:35	56.6	56.6	56.6	90	53.7	0	0	---	0.00	30.042 
01:40	56.6	56.6	56.6	90	53.7	0	0	---	0.00	30.042 
01:45	56.6	56.6	56.6	90	53.7	0	0	---	0.00	30.042 
01:50	56.6	56.6	56.6	90	53.7	0	0	---	0.00	30.042 
01:55	56.6	56.6	56.6	90	53.7	0	0	---	0.00	30.042 
02:00	56.5	56.5	56.5	89	53.3	0	0	---	0.00	30.040 
02:05	56.5	56.5	56.5	89	53.3	0	0	---	0.00	30.040 
02:10	56.3	56.3	56.3	89	53.1	0	0	---	0.00	30.040 
02:15	56.3	56.3	56.3	89	53.1	0	0	---	0.00	30.042 
02:20	56.2	56.2	56.2	89	53.0	0	0	---	0.00	30.042 
02:25	56.2	56.2	56.2	90	53.3	0	0	---	0.00	30.042 
02:30	56.0	56.0	56.0	90	53.1	0	0	---	0.00	30.041 
02:35	55.9	55.9	55.9	90	53.0	0	0	---	0.00	30.041 
02:40	55.7	55.7	55.7	90	52.8	0	0	---	0.00	30.041 
02:45	55.9	55.9	55.9	90	53.0	0	0	---	0.00	30.040 
02:50	55.7	55.7	55.7	90	52.8	0	0	---	0.00	30.040 
02:55	55.6	55.6	55.6	90	52.7	0	0	---	0.00	30.040 
03:00	55.6	55.6	55.6	91	53.0	0	0	---	0.00	30.041 
03:05	55.3	55.3	55.3	90	52.4	0	0	---	0.00	30.041 
03:10	55.1	55.1	55.1	91	52.5	0	0	---	0.00	30.041 
03:15	55.1	55.1	55.1	91	52.5	0	0	---	0.00	30.040 
03:20	55.0	55.0	55.0	91	52.4	0	0	---	0.00	30.040 
03:25	55.0	55.0	55.0	91	52.4	0	0	---	0.00	30.040 
03:30	54.8	54.8	54.8	92	52.5	0	0	---	0.00	30.040 
03:35	54.7	54.7	54.7	92	52.4	0	0	---	0.00	30.040 
03:40	54.7	54.7	54.7	92	52.4	0	0	---	0.00	30.040 
03:45	54.5	54.5	54.5	92	52.2	0	0	---	0.00	30.041 
03:50	54.5	54.5	54.5	92	52.2	0	0	---	0.00	30.041 
03:55	54.4	54.4	54.4	92	52.1	0	0	---	0.00	30.041 
04:00	54.2	54.2	54.2	92	51.9	0	0	---	0.00	30.041 
04:05	54.2	54.2	54.2	92	51.9	0	0	---	0.00	30.041 
04:10	54.1	54.1	54.1	92	51.8	0	0	---	0.00	30.041 
04:15	53.9	53.9	53.9	92	51.6	0	0	---	0.00	30.038 
04:20	53.8	53.8	53.8	92	51.5	0	0	---	0.00	30.038 
04:25	53.6	53.6	53.6	92	51.3	0	0	---	0.00	30.038 
04:30	53.6	53.6	53.6	92	51.3	0	0	---	0.00	30.035 
04:35	53.5	53.5	53.5	92	51.2	0	0	---	0.00	30.035 
04:40	53.3	53.3	53.3	92	51.0	0	0	---	0.00	30.035 
04:45	53.3	53.3	53.3	93	51.3	0	0	---	0.00	30.037 
04:50	53.2	53.2	53.2	93	51.2	0	0	---	0.00	30.037 
04:55	53.1	53.1	53.1	93	51.1	0	0	---	0.00	30.037 
05:00	53.1	53.1	53.1	93	51.1	0	0	---	0.00	30.039 
05:05	53.1	53.1	53.1	93	51.1	0	0	---	0.00	30.039 
05:10	53.1	53.1	53.1	93	51.1	0	0	---	0.00	30.039 
05:15	52.9	52.9	52.9	93	50.9	0	0	---	0.00	30.041 
05:20	52.9	52.9	52.9	93	50.9	0	0	---	0.00	30.041 
05:25	52.9	52.9	52.9	93	50.9	0	0	---	0.00	30.041 
05:30	52.9	52.9	52.9	93	50.9	0	0	---	0.00	30.041 
05:35	52.8	52.8	52.8	94	51.1	0	0	---	0.00	30.041 
05:40	52.8	52.8	52.8	94	51.1	0	0	---	0.00	30.041 
05:45	52.8	52.8	52.8	94	51.1	0	0	---	0.00	30.045 
05:50	52.8	52.8	52.8	94	51.1	0	0	---	0.00	30.045 
05:55	52.8	52.8	52.8	94	51.1	0	0	---	0.00	30.045 
06:00	52.8	52.8	52.8	94	51.1	0	0	---	0.00	30.047 
06:05	52.6	52.6	52.6	94	50.9	0	0	---	0.00	30.047 
06:10	52.5	52.5	52.5	94	50.8	0	0	---	0.00	30.047 
06:15	52.6	52.6	52.6	94	50.9	0	0	---	0.00	30.049 
06:20	52.6	52.6	52.6	94	50.9	0	0	---	0.00	30.049 
06:25	52.5	52.5	52.5	94	50.8	0	0	---	0.00	30.049 
06:30	52.5	52.5	52.5	94	50.8	0	0	---	0.00	30.053 
06:35	52.3	52.3	52.3	94	50.6	0	0	---	0.00	30.053 
06:40	52.2	52.2	52.2	94	50.5	0	0	---	0.00	30.053 
06:45	52.0	52.0	52.0	94	50.3	0	0	---	0.00	30.054 
06:50	52.0	52.0	52.0	94	50.3	0	0	---	0.00	30.054 
06:55	52.0	52.0	52.0	95	50.6	0	0	---	0.00	30.054 
07:00	52.0	52.0	52.0	95	50.6	0	0	---	0.00	30.060 
07:05	52.0	52.0	52.0	95	50.6	0	0	---	0.00	30.060 
07:10	52.0	52.0	52.0	94	50.3	0	0	---	0.00	30.060 
07:15	51.9	51.9	51.9	95	50.5	0	0	---	0.00	30.066 
07:20	51.9	51.9	51.9	95	50.5	0	0	---	0.00	30.066 
07:25	51.9	51.9	51.9	95	50.5	0	0	---	0.00	30.066 
07:30	51.7	51.7	51.7	95	50.3	0	0	---	0.00	30.067 
07:35	51.7	51.7	51.7	95	50.3	0	0	---	0.00	30.067 
07:40	51.6	51.6	51.6	95	50.2	0	0	---	0.00	30.067 
07:45	51.6	51.6	51.6	95	50.2	0	0	---	0.00	30.069 
07:50	51.6	51.6	51.6	95	50.2	0	0	---	0.00	30.069 
07:55	51.6	51.6	51.6	95	50.2	0	0	---	0.00	30.069 
08:00	51.6	51.6	51.6	95	50.2	0	0	---	0.00	30.074 
08:05	51.6	51.6	51.6	95	50.2	0	0	---	0.00	30.074 
08:10	51.7	51.7	51.7	95	50.3	0	0	---	0.00	30.074 
08:15	51.9	51.9	51.9	95	50.5	0	0	---	0.00	30.082 
08:20	52.0	52.0	52.0	95	50.6	0	0	---	0.00	30.082 
08:25	52.2	52.2	52.2	95	50.8	0	0	---	0.00	30.082 
08:30	52.8	52.8	52.8	96	51.7	0	0	---	0.00	30.079 
08:35	53.6	53.6	53.6	96	52.5	0	0	---	0.00	30.079 
08:40	54.2	54.2	54.2	96	53.1	0	0	---	0.00	30.079 
08:45	54.7	54.7	54.7	96	53.6	0	0	---	0.00	30.081 
08:50	55.3	55.3	55.3	96	54.2	0	0	---	0.00	30.081 
08:55	55.9	55.9	55.9	95	54.5	0	1	338	0.00	30.081 
09:00	56.5	56.5	56.5	94	54.8	0	1	---	0.00	30.077 
09:05	57.0	57.0	57.0	93	55.0	0	0	---	0.00	30.077 
09:10	57.6	57.6	57.6	93	55.6	0	1	338	0.00	30.077 
09:15	58.3	58.3	58.3	92	56.0	0	1	338	0.00	30.072 
09:20	58.9	58.9	58.9	91	56.3	0	1	338	0.00	30.072 
09:25	59.5	59.5	59.5	90	56.6	0	2	338	0.00	30.072 
09:30	60.2	60.2	60.2	88	56.6	0	1	338	0.00	30.070 
09:35	61.2	61.2	61.2	87	57.3	0	1	338	0.00	30.070 
09:40	62.1	62.1	62.1	85	57.5	0	2	338	0.00	30.070 
09:45	62.7	62.7	62.7	82	57.1	0	2	338	0.00	30.065 
09:50	63.4	63.4	63.4	82	57.8	0	2	338	0.00	30.065 
09:55	64.0	64.0	64.0	81	58.0	0	1	338	0.00	30.065 
10:00	64.5	64.5	64.5	80	58.2	0	1	338	0.00	30.068 
10:05	65.0	65.0	65.0	79	58.3	0	2	338	0.00	30.068 
10:10	66.1	66.1	66.1	77	58.7	0	2	338	0.00	30.068 
10:15	67.1	67.1	67.1	77	59.6	0	2	315	0.00	30.072 
10:20	68.1	68.1	68.1	74	59.5	0	2	315	0.00	30.072 
10:25	68.9	68.9	68.9	73	59.9	0	1	315	0.00	30.072 
10:30	69.6	69.6	69.6	71	59.8	1	2	0	0.00	30.074 
10:35	70.4	70.4	70.4	70	60.1	0	2	248	0.00	30.074 
10:40	71.1	71.1	71.1	68	60.0	1	3	68	0.00	30.074 
10:45	71.8	71.8	71.8	68	60.7	0	3	248	0.00	30.073 
10:50	72.7	72.7	72.7	66	60.7	0	2	248	0.00	30.073 
10:55	73.3	73.3	73.3	65	60.8	0	2	248	0.00	30.073 
11:00	73.7	73.7	73.7	64	60.7	0	3	248	0.00	30.072 
11:05	73.9	73.9	73.9	63	60.5	1	3	248	0.00	30.072 
11:10	74.4	74.4	74.4	63	61.0	0	2	248	0.00	30.072 
11:15	74.6	74.6	74.6	61	60.2	0	2	248	0.00	30.072 
11:20	74.9	74.9	74.9	62	61.0	1	4	45	0.00	30.072 
11:25	75.3	75.3	77.5	61	60.9	0	3	112	0.00	30.072 
11:30	75.8	75.8	77.9	59	60.4	1	6	248	0.00	30.071 
11:35	76.0	76.0	78.0	60	61.1	1	3	248	0.00	30.071 
11:40	76.1	76.1	78.1	58	60.2	1	3	248	0.00	30.071 
11:45	75.8	75.8	77.9	58	59.9	1	4	292	0.00	30.072 
11:50	75.3	75.3	77.6	59	60.0	2	5	248	0.00	30.072 
11:55	75.4	75.4	77.6	60	60.5	1	3	248	0.00	30.072 
12:00	76.0	76.0	78.0	61	61.6	1	3	248	0.00	30.070 
12:05	76.5	76.5	78.4	58	60.6	1	4	225	0.00	30.070 
12:10	77.0	77.0	78.8	58	61.1	0	2	248	0.00	30.070 
12:15	77.4	77.4	79.0	56	60.5	2	6	248	0.00	30.069 
12:20	77.7	77.7	79.3	56	60.7	2	5	248	0.00	30.069 
12:25	78.3	78.3	79.8	57	61.8	1	3	112	0.00	30.069 
12:30	78.6	78.6	79.9	54	60.5	1	2	270	0.00	30.064 
12:35	78.6	78.6	79.9	54	60.5	1	6	248	0.00	30.064 
12:40	79.0	79.0	80.3	54	60.9	1	4	248	0.00	30.064 
12:45	79.2	79.2	80.4	54	61.1	1	4	225	0.00	30.060 
12:50	78.6	78.6	79.8	53	60.0	2	5	270	0.00	30.060 
12:55	78.3	78.3	79.6	53	59.7	1	3	248	0.00	30.060 
13:00	78.1	78.1	79.5	54	60.1	1	3	248	0.00	30.058 
13:05	78.1	78.1	79.5	54	60.1	1	4	248	0.00	30.058 
13:10	78.1	78.1	79.4	52	59.0	3	7	248	0.00	30.058 
13:15	78.5	78.5	79.8	54	60.4	2	5	248	0.00	30.054 
13:20	79.0	79.0	80.0	51	59.3	3	7	248	0.00	30.054 
13:25	79.2	79.2	80.2	51	59.5	2	4	248	0.00	30.054 
13:30	79.2	79.2	80.3	52	60.0	1	3	248	0.00	30.051 
13:35	79.0	79.0	80.0	51	59.3	2	4	248	0.00	30.051 
13:40	78.3	78.3	79.6	52	59.2	1	4	248	0.00	30.051 
13:45	78.1	78.1	79.5	53	59.6	1	3	248	0.00	30.053 
13:50	77.9	77.9	79.3	52	58.8	1	3	248	0.00	30.053 
13:55	78.1	78.1	79.5	53	59.6	1	2	248	0.00	30.053 
14:00	78.3	78.3	79.7	54	60.3	1	4	68	0.00	30.044 
14:05	78.8	78.8	80.1	54	60.7	1	3	68	0.00	30.044 
14:10	78.8	78.8	79.9	52	59.7	0	2	68	0.00	30.044 
14:15	78.6	78.6	79.7	50	58.4	1	4	68	0.00	30.040 
14:20	78.8	78.8	79.9	52	59.7	0	2	270	0.00	30.040 
14:25	79.6	79.6	80.7	53	60.9	1	3	270	0.00	30.040 
14:30	80.1	80.1	80.8	49	59.2	1	4	248	0.00	30.033 
14:35	80.5	80.5	81.0	48	59.0	0	1	248	0.00	30.033 
14:40	80.7	80.7	81.3	49	59.7	2	4	270	0.00	30.033 
14:45	80.7	80.7	81.3	49	59.7	1	4	270	0.00	30.023 
14:50	81.1	81.1	81.4	46	58.3	1	4	292	0.00	30.023 
14:55	81.1	81.1	81.4	46	58.3	1	3	68	0.00	30.023 
15:00	80.5	80.5	80.9	47	58.4	0	3	248	0.00	30.021 
15:05	79.6	79.6	80.3	48	58.2	1	4	292	0.00	30.021 
15:10	78.8	78.8	79.9	51	59.1	1	4	90	0.00	30.021 
15:15	78.6	78.6	79.8	53	60.0	1	2	270	0.00	30.023 
15:20	79.4	79.4	80.2	49	58.5	2	5	112	0.00	30.023 
15:25	80.3	80.3	80.9	48	58.8	1	5	248	0.00	30.023 
15:30	80.3	80.3	80.7	46	57.6	2	4	248	0.00	30.008 
15:35	80.1	80.1	80.6	47	58.0	1	3	90	0.00	30.008 
15:40	79.8	79.8	80.5	48	58.3	1	4	90	0.00	30.008 
15:45	79.4	79.4	80.1	48	58.0	2	6	270	0.00	30.008 
15:50	79.8	79.8	80.4	47	57.8	1	5	270	0.00	30.008 
15:55	80.5	80.5	81.0	48	59.0	1	5	270	0.00	30.008 
16:00	80.5	80.5	80.9	47	58.4	2	7	90	0.00	30.002 
16:05	80.7	80.7	81.1	47	58.6	1	4	112	0.00	30.002 
16:10	80.7	80.7	81.1	47	58.6	2	7	68	0.00	30.002 
16:15	80.7	80.7	80.8	44	56.7	3	8	112	0.00	29.996 
16:20	80.7	80.7	80.9	45	57.4	2	9	135	0.00	29.996 
16:25	80.9	80.9	81.4	48	59.3	1	3	248	0.00	29.996 
16:30	80.9	80.9	81.1	45	57.5	1	4	248	0.00	29.994 
16:35	80.7	80.7	81.0	46	58.0	1	4	248	0.00	29.994 
16:40	80.3	80.3	80.7	46	57.6	1	3	112	0.00	29.994 
16:45	80.3	80.3	80.7	46	57.6	2	7	90	0.00	29.995 
16:50	80.5	80.5	80.8	46	57.8	2	5	90	0.00	29.995 
16:55	80.5	80.5	81.0	48	59.0	1	2	0	0.00	29.995 
17:00	80.5	80.5	81.0	48	59.0	1	3	0	0.00	29.992 
17:05	80.3	80.3	80.6	45	57.0	1	3	135	0.00	29.992 
17:10	79.9	79.9	80.4	47	57.8	0	1	135	0.00	29.992 
17:15	79.8	79.8	80.5	48	58.3	0	2	135	0.00	29.994 
17:20	79.4	79.4	80.1	48	58.0	0	3	135	0.00	29.994 
17:25	79.2	79.2	79.8	46	56.6	1	5	45	0.00	29.994 
17:30	79.2	79.2	79.8	46	56.6	0	1	45	0.00	29.992 
17:35	79.4	79.4	80.0	46	56.8	0	1	45	0.00	29.992 
17:40	79.6	79.6	80.2	47	57.6	0	1	45	0.00	29.992 
17:45	79.8	79.8	80.1	44	55.9	0	2	45	0.00	29.991 
17:50	79.9	79.9	80.2	44	56.0	1	3	45	0.00	29.991 
17:55	79.9	79.9	80.2	44	56.0	1	6	90	0.00	29.991 
18:00	79.9	79.9	80.0	42	54.7	1	5	112	0.00	29.992 
18:05	80.1	80.1	80.2	42	54.9	1	4	112	0.00	29.992 
18:10	80.1	80.1	80.1	41	54.2	1	4	45	0.00	29.992 
18:15	80.1	80.1	80.1	41	54.2	1	4	112	0.00	29.994 
18:20	79.9	79.9	79.9	40	53.4	1	6	248	0.00	29.994 
18:25	79.6	79.6	79.8	42	54.5	0	1	248	0.00	29.994 
18:30	79.2	79.2	79.6	43	54.7	0	1	248	0.00	29.995 
18:35	78.8	78.8	79.4	43	54.4	0	2	248	0.00	29.995 
18:40	78.6	78.6	79.2	43	54.2	0	3	135	0.00	29.995 
18:45	78.5	78.5	79.2	43	54.1	0	3	135	0.00	29.992 
18:50	78.5	78.5	79.2	44	54.7	0	1	135	0.00	29.992 
18:55	78.5	78.5	79.2	44	54.7	0	1	135	0.00	29.992 
19:00	78.3	78.3	79.1	44	54.6	0	2	135	0.00	29.990 
19:05	78.1	78.1	79.0	44	54.4	0	2	135	0.00	29.990 
19:10	77.9	77.9	78.9	44	54.2	0	2	135	0.00	29.990 
19:15	77.7	77.7	78.8	45	54.6	0	1	135	0.00	29.990 
19:20	77.6	77.6	78.7	44	53.9	0	2	135	0.00	29.990 
19:25	77.4	77.4	78.6	44	53.8	0	2	112	0.00	29.990 
19:30	77.2	77.2	78.5	44	53.6	0	1	112	0.00	29.992 
19:35	76.8	76.8	78.3	44	53.2	0	2	112	0.00	29.992 
19:40	76.7	76.7	78.3	44	53.1	0	3	112	0.00	29.992 
19:45	76.5	76.5	78.2	45	53.6	0	2	112	0.00	29.995 
19:50	76.1	76.1	78.0	46	53.8	0	0	---	0.00	29.995 
19:55	75.8	75.8	77.9	47	54.1	0	1	112	0.00	29.995 
20:00	75.4	75.4	77.8	46	53.2	0	2	112	0.00	29.997 
20:05	76.0	76.0	78.0	46	53.7	0	2	112	0.00	29.997 
20:10	75.6	75.6	77.9	47	53.9	0	1	112	0.00	29.997 
20:15	75.3	75.3	77.7	48	54.2	0	1	112	0.00	29.994 
20:20	74.9	74.9	74.9	48	53.9	0	1	112	0.00	29.994 
20:25	74.6	74.6	74.6	49	54.2	0	1	112	0.00	29.994 
20:30	74.2	74.2	74.2	50	54.3	0	1	112	0.00	29.996 
20:35	73.9	73.9	73.9	50	54.1	0	1	112	0.00	29.996 
20:40	73.7	73.7	73.7	50	53.9	0	1	112	0.00	29.996 
20:45	73.5	73.5	73.5	51	54.2	0	1	112	0.00	29.997 
20:50	73.2	73.2	73.2	52	54.5	0	0	---	0.00	29.997 
20:55	73.0	73.0	73.0	53	54.8	0	0	---	0.00	29.997 
21:00	72.7	72.7	72.7	53	54.6	0	2	112	0.00	29.999 
21:05	72.5	72.5	72.5	54	54.9	0	1	112	0.00	29.999 
21:10	72.3	72.3	72.3	54	54.7	0	1	112	0.00	29.999 
21:15	72.0	72.0	72.0	55	54.9	0	0	---	0.00	29.994 
21:20	71.8	71.8	71.8	55	54.7	0	1	112	0.00	29.994 
21:25	71.8	71.8	71.8	55	54.7	0	1	112	0.00	29.994 
21:30	71.8	71.8	71.8	55	54.7	0	2	112	0.00	29.996 
21:35	72.0	72.0	72.0	55	54.9	0	1	112	0.00	29.996 
21:40	72.0	72.0	72.0	54	54.4	0	1	112	0.00	29.996 
21:45	72.0	72.0	72.0	55	54.9	0	1	112	0.00	30.000 
21:50	72.0	72.0	72.0	55	54.9	0	1	112	0.00	30.000 
21:55	71.8	71.8	71.8	56	55.2	0	2	112	0.00	30.000 
22:00	71.6	71.6	71.6	56	55.1	0	1	112	0.00	30.001 
22:05	71.5	71.5	71.5	57	55.5	0	1	112	0.00	30.001 
22:10	71.1	71.1	71.1	57	55.1	0	1	112	0.00	30.001 
22:15	71.1	71.1	71.1	56	54.6	0	1	112	0.00	29.994 
22:20	71.1	71.1	71.1	57	55.1	0	1	112	0.00	29.994 
22:25	71.1	71.1	71.1	57	55.1	0	1	112	0.00	29.994 
22:30	70.9	70.9	70.9	57	54.9	0	1	112	0.00	29.996 
22:35	70.9	70.9	70.9	58	55.4	0	1	112	0.00	29.996 
22:40	70.8	70.8	70.8	58	55.3	0	0	---	0.00	29.996 
22:45	70.6	70.6	70.6	58	55.1	0	1	112	0.00	30.000 
22:50	70.3	70.3	70.3	59	55.3	0	0	---	0.00	30.000 
22:55	70.1	70.1	70.1	59	55.1	0	2	112	0.00	30.000 
23:00	70.1	70.1	70.1	58	54.6	0	2	112	0.00	30.000 
23:05	70.4	70.4	70.4	57	54.4	0	2	112	0.00	30.000 
23:10	70.6	70.6	70.6	58	55.1	0	1	135	0.00	30.000 
23:15	70.8	70.8	70.8	57	54.8	0	2	135	0.00	29.999 
23:20	70.9	70.9	70.9	56	54.4	0	3	135	0.00	29.999 
23:25	71.1	71.1	71.1	56	54.6	0	1	135	0.00	29.999 
23:30	71.1	71.1	71.1	57	55.1	0	2	135	0.00	30.003 
23:35	70.9	70.9	70.9	57	54.9	0	1	135	0.00	30.003 
23:40	70.8	70.8	70.8	57	54.8	0	2	135	0.00	30.003 
23:45	70.8	70.8	70.8	57	54.8	0	2	135	0.00	30.008 
23:50	70.8	70.8	70.8	57	54.8	1	3	45	0.00	30.008 
23:55	70.9	70.9	70.9	57	54.9	1	3	45	0.00	30.008 

CoCoRaHS
IN-AL-39
A2 Web Hosting
Creative Commons License
GoDaddy
search engine by freefind advanced

loaded 2018-11-19 19:28:26 • last modified 2010-11-18 10:43:29
Privacy PolicyDisclaimer
• wx.awcolley.com is powered by PmWiki v.2002016 •
• all content (unless otherwise noted) © 2018 A W Colley